createdAt,value
2023-04-06T00:01:47.167Z,0.92
2023-04-06T00:03:44.424Z,0.92
2023-04-06T00:05:43.170Z,0.92
2023-04-06T00:07:44.272Z,0.92
2023-04-06T00:09:43.147Z,0.92
2023-04-06T00:11:43.551Z,0.92
2023-04-06T00:13:43.135Z,0.9
2023-04-06T00:15:42.565Z,0.9
2023-04-06T00:17:44.615Z,0.9
2023-04-06T00:19:43.421Z,0.89
2023-04-06T00:21:43.652Z,0.89
2023-04-06T00:23:42.947Z,0.89
2023-04-06T00:25:43.174Z,322.77
2023-04-06T00:27:42.714Z,322.77
2023-04-06T00:29:43.645Z,322.77
2023-04-06T00:31:42.966Z,317.41
2023-04-06T00:33:43.934Z,317.41
2023-04-06T00:35:42.635Z,317.41
2023-04-06T00:37:43.449Z,0.84
2023-04-06T00:39:43.859Z,0.84
2023-04-06T00:41:43.656Z,0.84
2023-04-06T00:43:42.905Z,306.87
2023-04-06T00:45:42.434Z,306.87
2023-04-06T00:47:43.375Z,306.87
2023-04-06T00:49:43.792Z,0.83
2023-04-06T00:51:42.906Z,0.83
2023-04-06T00:53:43.366Z,0.83
2023-04-06T00:55:42.765Z,301.68
2023-04-06T00:57:43.197Z,301.68
2023-04-06T00:59:43.594Z,301.68
2023-04-06T01:01:46.568Z,296.56
2023-04-06T01:03:43.174Z,296.56
2023-04-06T01:05:42.927Z,296.56
2023-04-06T01:07:42.944Z,0.82
2023-04-06T01:09:42.895Z,0.82
2023-04-06T01:11:43.304Z,0.82
2023-04-06T01:13:42.545Z,301.68
2023-04-06T01:15:43.318Z,301.68
2023-04-06T01:17:43.180Z,301.68
2023-04-06T01:19:44.025Z,0.79
2023-04-06T01:21:42.934Z,0.79
2023-04-06T01:23:42.324Z,0.79
2023-04-06T01:25:43.080Z,291.5
2023-04-06T01:27:43.344Z,291.5
2023-04-06T01:29:43.374Z,291.5
2023-04-06T01:31:43.904Z,0.79
2023-04-06T01:33:43.050Z,0.79
2023-04-06T01:35:43.433Z,0.79
2023-04-06T01:37:43.182Z,0.77
2023-04-06T01:39:43.152Z,0.77
2023-04-06T01:41:42.987Z,0.77
2023-04-06T01:43:43.232Z,0.76
2023-04-06T01:45:42.867Z,0.76
2023-04-06T01:47:44.044Z,0.76
2023-04-06T01:49:43.563Z,0.76
2023-04-06T01:51:43.466Z,0.76
2023-04-06T01:53:42.877Z,0.76
2023-04-06T01:55:42.586Z,281.54
2023-04-06T01:57:43.089Z,281.54
2023-04-06T01:59:43.520Z,281.54
2023-04-06T02:01:46.706Z,0.76
2023-04-06T02:03:44.566Z,0.76
2023-04-06T02:05:42.532Z,0.76
2023-04-06T02:07:43.104Z,281.54
2023-04-06T02:09:43.068Z,281.54
2023-04-06T02:11:43.014Z,281.54
2023-04-06T02:13:42.618Z,0.73
2023-04-06T02:15:43.106Z,0.73
2023-04-06T02:17:43.415Z,0.73
2023-04-06T02:19:43.806Z,0.73
2023-04-06T02:21:42.820Z,0.73
2023-04-06T02:23:43.328Z,0.73
2023-04-06T02:25:43.072Z,0.73
2023-04-06T02:27:43.576Z,0.73
2023-04-06T02:29:43.199Z,0.73
2023-04-06T02:31:43.491Z,271.81
2023-04-06T02:33:43.389Z,271.81
2023-04-06T02:35:43.593Z,271.81
2023-04-06T02:37:42.847Z,0.72
2023-04-06T02:39:43.525Z,0.72
2023-04-06T02:41:42.745Z,0.72
2023-04-06T02:43:43.339Z,0.72
2023-04-06T02:45:42.882Z,0.72
2023-04-06T02:47:43.719Z,0.72
2023-04-06T02:49:43.765Z,0.72
2023-04-06T02:51:42.735Z,0.72
2023-04-06T02:53:43.361Z,0.72
2023-04-06T02:55:44.951Z,262.3
2023-04-06T02:57:42.989Z,262.3
2023-04-06T02:59:43.533Z,262.3
2023-04-06T03:01:46.751Z,262.3
2023-04-06T03:03:44.366Z,262.3
2023-04-06T03:05:43.491Z,262.3
2023-04-06T03:07:46.248Z,262.3
2023-04-06T03:09:43.737Z,262.3
2023-04-06T03:11:42.860Z,262.3
2023-04-06T03:13:43.315Z,262.3
2023-04-06T03:15:43.002Z,262.3
2023-04-06T03:17:43.443Z,262.3
2023-04-06T03:19:43.483Z,262.3
2023-04-06T03:21:43.245Z,262.3
2023-04-06T03:23:42.625Z,262.3
2023-04-06T03:25:42.998Z,0.71
2023-04-06T03:27:42.520Z,0.71
2023-04-06T03:29:43.194Z,0.71
2023-04-06T03:31:43.860Z,262.3
2023-04-06T03:33:43.231Z,262.3
2023-04-06T03:35:43.339Z,262.3
2023-04-06T03:37:55.831Z,0.71
2023-04-06T03:39:43.621Z,0.71
2023-04-06T03:41:42.892Z,0.71
2023-04-06T03:43:43.197Z,0.7
2023-04-06T03:45:42.510Z,0.7
2023-04-06T03:47:43.504Z,0.7
2023-04-06T03:49:43.024Z,0.7
2023-04-06T03:51:43.199Z,0.7
2023-04-06T03:53:42.591Z,0.7
2023-04-06T03:55:42.858Z,257.63
2023-04-06T03:57:46.067Z,257.63
2023-04-06T03:59:43.569Z,257.63
2023-04-06T04:01:46.684Z,0.7
2023-04-06T04:03:44.788Z,0.7
2023-04-06T04:05:43.227Z,0.7
2023-04-06T04:07:42.896Z,257.63
2023-04-06T04:09:43.856Z,257.63
2023-04-06T04:11:43.131Z,257.63
2023-04-06T04:13:42.320Z,257.63
2023-04-06T04:15:43.046Z,257.63
2023-04-06T04:17:44.475Z,257.63
2023-04-06T04:19:43.161Z,0.7
2023-04-06T04:21:43.302Z,0.7
2023-04-06T04:23:42.712Z,0.7
2023-04-06T04:25:43.053Z,0.68
2023-04-06T04:27:42.794Z,0.68
2023-04-06T04:29:43.801Z,0.68
2023-04-06T04:31:42.802Z,0.68
2023-04-06T04:33:43.943Z,0.68
2023-04-06T04:35:42.694Z,0.68
2023-04-06T04:37:43.462Z,0.68
2023-04-06T04:39:43.133Z,0.68
2023-04-06T04:41:43.121Z,0.68
2023-04-06T04:43:44.313Z,0.68
2023-04-06T04:45:43.335Z,0.68
2023-04-06T04:47:43.139Z,0.68
2023-04-06T04:49:43.614Z,0.68
2023-04-06T04:51:42.686Z,0.68
2023-04-06T04:53:44.472Z,0.68
2023-04-06T04:55:42.970Z,0.67
2023-04-06T04:57:43.189Z,0.67
2023-04-06T04:59:43.511Z,0.67
2023-04-06T05:02:05.945Z,248.45
2023-04-06T05:03:44.104Z,248.45
2023-04-06T05:05:43.005Z,248.45
2023-04-06T05:07:44.058Z,0.67
2023-04-06T05:09:43.613Z,0.67
2023-04-06T05:11:42.956Z,0.67
2023-04-06T05:13:43.680Z,248.45
2023-04-06T05:15:43.768Z,248.45
2023-04-06T05:17:43.803Z,248.45
2023-04-06T05:19:44.189Z,0.66
2023-04-06T05:21:43.316Z,0.66
2023-04-06T05:23:43.432Z,0.66
2023-04-06T05:25:42.687Z,243.95
2023-04-06T05:27:43.071Z,243.95
2023-04-06T05:29:43.142Z,243.95
2023-04-06T05:31:43.664Z,0.66
2023-04-06T05:33:43.341Z,0.66
2023-04-06T05:35:43.768Z,0.66
2023-04-06T05:37:45.099Z,0.66
2023-04-06T05:39:43.921Z,0.66
2023-04-06T05:41:43.101Z,0.66
2023-04-06T05:43:45.843Z,0.66
2023-04-06T05:45:43.191Z,0.66
2023-04-06T05:47:43.408Z,0.66
2023-04-06T05:49:43.743Z,0.67
2023-04-06T05:51:42.849Z,0.67
2023-04-06T05:53:43.500Z,0.67
2023-04-06T05:55:44.494Z,0.67
2023-04-06T05:57:43.424Z,0.67
2023-04-06T05:59:43.612Z,0.67
2023-04-06T06:01:46.315Z,0.68
2023-04-06T06:03:43.895Z,0.68
2023-04-06T06:05:43.197Z,0.68
2023-04-06T06:07:43.229Z,0.67
2023-04-06T06:09:43.425Z,0.67
2023-04-06T06:11:42.929Z,0.67
2023-04-06T06:13:45.849Z,253.01
2023-04-06T06:15:42.966Z,253.01
2023-04-06T06:17:43.819Z,253.01
2023-04-06T06:19:43.369Z,0.7
2023-04-06T06:21:43.552Z,0.7
2023-04-06T06:23:43.021Z,0.7
2023-04-06T06:25:43.177Z,0.71
2023-04-06T06:27:42.844Z,0.71
2023-04-06T06:29:43.618Z,0.71
2023-04-06T06:31:42.844Z,271.81
2023-04-06T06:33:43.342Z,271.81
2023-04-06T06:35:43.085Z,271.81
2023-04-06T06:37:45.637Z,276.64
2023-04-06T06:39:43.569Z,276.64
2023-04-06T06:41:43.206Z,276.64
2023-04-06T06:43:44.791Z,286.49
2023-04-06T06:45:43.352Z,286.49
2023-04-06T06:47:43.351Z,286.49
2023-04-06T06:49:43.345Z,0.79
2023-04-06T06:51:42.678Z,0.79
2023-04-06T06:53:43.062Z,0.79
2023-04-06T06:55:42.985Z,0.8
2023-04-06T06:57:43.105Z,0.8
2023-04-06T06:59:43.997Z,0.8
2023-04-06T07:01:47.445Z,0.83
2023-04-06T07:03:43.662Z,0.83
2023-04-06T07:06:00.580Z,0.83
2023-04-06T07:07:43.313Z,317.41
2023-04-06T07:09:43.198Z,317.41
2023-04-06T07:11:43.322Z,317.41
2023-04-06T07:13:43.439Z,0.87
2023-04-06T07:15:43.159Z,0.87
2023-04-06T07:17:43.893Z,0.87
2023-04-06T07:19:44.181Z,333.67
2023-04-06T07:21:43.144Z,333.67
2023-04-06T07:23:43.226Z,333.67
2023-04-06T07:25:48.143Z,0.93
2023-04-06T07:27:43.073Z,0.93
2023-04-06T07:29:42.632Z,0.93
2023-04-06T07:31:44.872Z,0.99
2023-04-06T07:33:43.216Z,0.99
2023-04-06T07:35:43.490Z,0.99
2023-04-06T07:37:42.701Z,1.08
2023-04-06T07:39:43.178Z,1.08
2023-04-06T07:41:42.956Z,1.08
2023-04-06T07:43:43.595Z,417.04
2023-04-06T07:45:42.851Z,417.04
2023-04-06T07:47:43.881Z,417.04
2023-04-06T07:49:42.813Z,1.16
2023-04-06T07:51:42.528Z,1.16
2023-04-06T07:53:45.835Z,1.16
2023-04-06T07:55:43.009Z,443.23
2023-04-06T07:57:43.418Z,443.23
2023-04-06T07:59:43.037Z,443.23
2023-04-06T08:01:46.350Z,443.23
2023-04-06T08:03:44.038Z,443.23
2023-04-06T08:05:44.201Z,443.23
2023-04-06T08:07:42.857Z,1.22
2023-04-06T08:09:43.225Z,1.22
2023-04-06T08:11:45.677Z,1.22
2023-04-06T08:13:43.353Z,1.11
2023-04-06T08:15:42.991Z,1.11
2023-04-06T08:17:43.735Z,1.11
2023-04-06T08:19:42.813Z,367.87
2023-04-06T08:21:43.354Z,367.87
2023-04-06T08:23:43.153Z,367.87
2023-04-06T08:25:43.410Z,1.09
2023-04-06T08:27:42.579Z,1.09
2023-04-06T08:29:43.330Z,1.09
2023-04-06T08:31:43.183Z,1.18
2023-04-06T08:33:43.929Z,1.18
2023-04-06T08:35:44.864Z,1.18
2023-04-06T08:37:43.421Z,430
2023-04-06T08:39:42.785Z,430
2023-04-06T08:41:43.444Z,430
2023-04-06T08:43:43.057Z,350.49
2023-04-06T08:45:42.488Z,350.49
2023-04-06T08:47:47.378Z,350.49
2023-04-06T08:49:42.430Z,306.87
2023-04-06T08:51:43.136Z,306.87
2023-04-06T08:53:46.827Z,306.87
2023-04-06T08:55:42.823Z,0.52
2023-04-06T08:57:43.263Z,0.52
2023-04-06T08:59:56.845Z,0.52
2023-04-06T09:01:47.469Z,0.49
2023-04-06T09:03:45.402Z,0.49
2023-04-06T09:05:45.288Z,0.49
2023-04-06T09:07:43.402Z,213.89
2023-04-06T09:09:46.006Z,213.89
2023-04-06T09:11:43.214Z,213.89
2023-04-06T09:13:42.629Z,0.58
2023-04-06T09:15:46.811Z,0.58
2023-04-06T09:17:43.756Z,0.58
2023-04-06T09:19:42.837Z,213.89
2023-04-06T09:21:47.900Z,213.89
2023-04-06T09:23:42.941Z,213.89
2023-04-06T09:25:43.368Z,0.47
2023-04-06T09:27:43.794Z,0.47
2023-04-06T09:29:43.482Z,0.47
2023-04-06T09:31:43.275Z,0.45
2023-04-06T09:33:43.694Z,0.45
2023-04-06T09:35:46.290Z,0.45
2023-04-06T09:37:43.632Z,157.79
2023-04-06T09:39:42.849Z,157.79
2023-04-06T09:41:58.912Z,157.79
2023-04-06T09:43:42.819Z,0.46
2023-04-06T09:45:43.493Z,0.46
2023-04-06T09:49:45.555Z,0.51
2023-04-06T09:51:45.094Z,0.51
2023-04-06T09:53:43.083Z,0.51
2023-04-06T09:55:43.355Z,0.6
2023-04-06T09:57:45.117Z,0.6
2023-04-06T09:59:44.417Z,0.6
2023-04-06T10:01:50.932Z,230.75
2023-04-06T10:03:44.394Z,230.75
2023-04-06T10:05:44.334Z,230.75
2023-04-06T10:07:56.631Z,0.61
2023-04-06T10:09:43.360Z,0.61
2023-04-06T10:11:42.799Z,0.61
2023-04-06T10:13:43.122Z,0.65
2023-04-06T10:15:45.728Z,0.65
2023-04-06T10:17:43.796Z,0.65
2023-04-06T10:19:42.514Z,0.66
2023-04-06T10:21:44.511Z,0.66
2023-04-06T10:23:43.650Z,0.66
2023-04-06T10:25:42.905Z,230.75
2023-04-06T10:27:43.363Z,230.75
2023-04-06T10:29:42.876Z,230.75
2023-04-06T10:31:43.612Z,0.72
2023-04-06T10:33:44.717Z,0.72
2023-04-06T10:35:43.491Z,0.72
2023-04-06T10:37:43.617Z,291.5
2023-04-06T10:39:44.528Z,291.5
2023-04-06T10:41:43.324Z,291.5
2023-04-06T10:43:43.469Z,0.77
2023-04-06T10:45:43.491Z,0.77
2023-04-06T10:47:43.029Z,0.77
2023-04-06T10:49:43.089Z,0.82
2023-04-06T10:51:42.647Z,0.82
2023-04-06T10:53:43.307Z,0.82
2023-04-06T10:55:46.641Z,0.83
2023-04-06T10:57:42.903Z,0.83
2023-04-06T10:59:44.524Z,0.83
2023-04-06T11:03:43.615Z,0.9
2023-04-06T11:05:45.002Z,0.9
2023-04-06T11:07:43.000Z,0.93
2023-04-06T11:09:46.860Z,0.93
2023-04-06T11:11:58.227Z,0.93
2023-04-06T11:13:43.242Z,339.22
2023-04-06T11:15:42.610Z,339.22
2023-04-06T11:17:44.148Z,339.22
2023-04-06T11:19:43.021Z,0.84
2023-04-06T11:21:43.502Z,0.84
2023-04-06T11:23:42.951Z,0.84
2023-04-06T11:25:44.360Z,317.41
2023-04-06T11:27:42.868Z,317.41
2023-04-06T11:29:43.793Z,317.41
2023-04-06T11:31:45.741Z,0.77
2023-04-06T11:33:43.627Z,0.77
2023-04-06T11:35:42.796Z,0.77
2023-04-06T11:37:48.752Z,296.56
2023-04-06T11:39:42.673Z,296.56
2023-04-06T11:41:43.257Z,296.56
2023-04-06T11:43:42.533Z,317.41
2023-04-06T11:45:42.687Z,317.41
2023-04-06T11:47:45.314Z,317.41
2023-04-06T11:49:45.855Z,312.11
2023-04-06T11:51:43.681Z,312.11
2023-04-06T11:53:43.712Z,312.11
2023-04-06T11:55:46.274Z,312.11
2023-04-06T11:57:42.823Z,312.11
2023-04-06T11:59:43.468Z,312.11
2023-04-06T12:01:50.717Z,291.5
2023-04-06T12:03:43.788Z,291.5
2023-04-06T12:05:44.186Z,291.5
2023-04-06T12:07:43.309Z,286.49
2023-04-06T12:09:45.614Z,286.49
2023-04-06T12:11:43.595Z,286.49
2023-04-06T12:13:42.585Z,0.72
2023-04-06T12:15:43.365Z,0.72
2023-04-06T12:17:43.166Z,0.72
2023-04-06T12:19:44.094Z,286.49
2023-04-06T12:21:57.562Z,286.49
2023-04-06T12:23:43.231Z,286.49
2023-04-06T12:25:43.724Z,317.41
2023-04-06T12:27:55.409Z,317.41
2023-04-06T12:29:42.762Z,317.41
2023-04-06T12:31:43.641Z,0.84
2023-04-06T12:33:46.464Z,0.84
2023-04-06T12:35:43.412Z,0.84
2023-04-06T12:37:42.840Z,0.84
2023-04-06T12:39:44.334Z,0.84
2023-04-06T12:41:42.638Z,0.84
2023-04-06T12:43:43.176Z,0.86
2023-04-06T12:45:45.512Z,0.86
2023-04-06T12:47:44.159Z,0.86
2023-04-06T12:49:43.417Z,0.95
2023-04-06T12:51:43.289Z,0.95
2023-04-06T12:53:43.015Z,0.95
2023-04-06T12:55:44.869Z,312.11
2023-04-06T12:57:42.895Z,312.11
2023-04-06T12:59:43.806Z,312.11
2023-04-06T13:01:49.778Z,0.86
2023-04-06T13:03:43.281Z,0.86
2023-04-06T13:05:44.882Z,0.86
2023-04-06T13:07:42.923Z,322.77
2023-04-06T13:09:42.964Z,322.77
2023-04-06T13:11:42.798Z,322.77
2023-04-06T13:13:43.301Z,286.49
2023-04-06T13:15:42.690Z,286.49
2023-04-06T13:17:44.007Z,286.49
2023-04-06T13:19:42.852Z,0.73
2023-04-06T13:21:43.238Z,0.73
2023-04-06T13:23:42.630Z,0.73
2023-04-06T13:25:45.704Z,0.72
2023-04-06T13:27:42.758Z,0.72
2023-04-06T13:29:43.776Z,0.72
2023-04-06T13:31:45.177Z,262.3
2023-04-06T13:33:43.388Z,262.3
2023-04-06T13:35:43.214Z,262.3
2023-04-06T13:37:42.903Z,267.02
2023-04-06T13:39:43.181Z,267.02
2023-04-06T13:41:42.925Z,267.02
2023-04-06T13:43:45.388Z,0.72
2023-04-06T13:45:42.831Z,0.72
2023-04-06T13:47:45.309Z,0.72
2023-04-06T13:49:43.093Z,257.63
2023-04-06T13:51:43.349Z,257.63
2023-04-06T13:53:42.893Z,257.63
2023-04-06T13:55:43.366Z,0.7
2023-04-06T13:57:42.791Z,0.7
2023-04-06T14:01:50.676Z,248.45
2023-04-06T14:03:44.735Z,248.45
2023-04-06T14:05:43.097Z,248.45
2023-04-06T14:09:42.758Z,0.75
2023-04-06T14:11:43.466Z,0.75
2023-04-06T14:13:43.314Z,0.77
2023-04-06T14:15:43.306Z,0.77
2023-04-06T14:17:43.662Z,0.77
2023-04-06T14:19:42.618Z,286.49
2023-04-06T14:21:43.195Z,286.49
2023-04-06T14:23:43.325Z,286.49
2023-04-06T14:25:42.907Z,286.49
2023-04-06T14:27:42.481Z,286.49
2023-04-06T14:29:43.061Z,286.49
2023-04-06T14:31:43.867Z,0.79
2023-04-06T14:33:43.465Z,0.79
2023-04-06T14:35:43.371Z,0.79
2023-04-06T14:37:43.325Z,0.77
2023-04-06T14:39:42.628Z,0.77
2023-04-06T14:41:42.959Z,0.77
2023-04-06T14:43:43.354Z,0.75
2023-04-06T14:45:43.040Z,0.75
2023-04-06T14:47:43.709Z,0.75
2023-04-06T14:49:43.045Z,276.64
2023-04-06T14:51:43.471Z,276.64
2023-04-06T14:53:42.589Z,276.64
2023-04-06T14:55:43.350Z,291.5
2023-04-06T14:57:42.861Z,291.5
2023-04-06T14:59:43.356Z,291.5
2023-04-06T15:01:46.327Z,286.49
2023-04-06T15:03:45.177Z,286.49
2023-04-06T15:05:43.941Z,286.49
2023-04-06T15:07:43.039Z,312.11
2023-04-06T15:09:43.528Z,312.11
2023-04-06T15:11:42.913Z,312.11
2023-04-06T15:13:43.528Z,0.83
2023-04-06T15:15:42.931Z,0.83
2023-04-06T15:17:44.005Z,0.83
2023-04-06T15:19:42.647Z,291.5
2023-04-06T15:21:43.038Z,291.5
2023-04-06T15:23:43.541Z,291.5
2023-04-06T15:25:42.820Z,276.64
2023-04-06T15:27:43.352Z,276.64
2023-04-06T15:29:43.045Z,276.64
2023-04-06T15:31:59.990Z,0.79
2023-04-06T15:33:44.674Z,0.79
2023-04-06T15:35:43.210Z,0.79
2023-04-06T15:37:42.900Z,0.79
2023-04-06T15:39:42.885Z,0.79
2023-04-06T15:41:43.120Z,0.79
2023-04-06T15:43:43.341Z,0.82
2023-04-06T15:45:42.824Z,0.82
2023-04-06T15:47:45.562Z,0.82
2023-04-06T15:49:43.084Z,281.54
2023-04-06T15:51:43.380Z,281.54
2023-04-06T15:53:42.751Z,281.54
2023-04-06T15:55:43.207Z,267.02
2023-04-06T15:57:42.787Z,267.02
2023-04-06T15:59:43.791Z,267.02
2023-04-06T16:01:46.170Z,267.02
2023-04-06T16:03:46.755Z,267.02
2023-04-06T16:05:59.375Z,267.02
2023-04-06T16:07:46.117Z,271.81
2023-04-06T16:09:43.042Z,271.81
2023-04-06T16:11:43.503Z,271.81
2023-04-06T16:13:47.304Z,276.64
2023-04-06T16:15:42.900Z,276.64
2023-04-06T16:17:43.734Z,276.64
2023-04-06T16:19:44.153Z,0.75
2023-04-06T16:21:43.482Z,0.75
2023-04-06T16:23:42.682Z,0.75
2023-04-06T16:25:42.938Z,276.64
2023-04-06T16:27:43.400Z,276.64
2023-04-06T16:29:42.722Z,276.64
2023-04-06T16:31:43.664Z,0.71
2023-04-06T16:33:43.585Z,0.71
2023-04-06T16:35:43.261Z,0.71
2023-04-06T16:37:43.602Z,257.63
2023-04-06T16:39:43.484Z,257.63
2023-04-06T16:41:42.872Z,257.63
2023-04-06T16:43:44.307Z,243.95
2023-04-06T16:45:42.579Z,243.95
2023-04-06T16:47:43.117Z,243.95
2023-04-06T16:49:44.589Z,243.95
2023-04-06T16:53:43.871Z,243.95
2023-04-06T17:01:47.222Z,239.5
2023-04-06T17:05:43.895Z,230.75
2023-04-06T17:09:44.757Z,235.1
2023-04-06T17:13:42.857Z,235.1
2023-04-06T17:17:44.624Z,0.64
2023-04-06T17:21:43.260Z,230.75
2023-04-06T17:25:43.136Z,230.75
2023-04-06T17:29:42.542Z,0.62
2023-04-06T17:33:42.910Z,0.61
2023-04-06T17:37:43.184Z,0.61
2023-04-06T17:41:43.104Z,0.61
2023-04-06T17:45:44.012Z,0.61
2023-04-06T17:49:43.456Z,0.61
2023-04-06T17:53:43.251Z,0.61
2023-04-06T17:57:43.290Z,0.61
2023-04-06T18:01:47.023Z,0.61
2023-04-06T18:05:43.419Z,0.61
2023-04-06T18:09:43.198Z,0.61
2023-04-06T18:13:43.315Z,0.61
2023-04-06T18:17:42.998Z,0.61
2023-04-06T18:21:45.489Z,0.61
2023-04-06T18:26:02.609Z,0.61
2023-04-06T18:29:43.017Z,0.61
2023-04-06T18:33:43.458Z,0.61
2023-04-06T18:37:43.371Z,0.61
2023-04-06T18:41:43.323Z,4734.88
2023-04-06T18:45:43.249Z,5.75
2023-04-06T18:49:43.139Z,1900.39
2023-04-06T18:53:43.019Z,2.8
2023-04-06T18:57:42.820Z,791.63
2023-04-06T19:01:46.803Z,2.06
2023-04-06T19:05:45.032Z,1.74
2023-04-06T19:09:43.593Z,1.6
2023-04-06T19:13:46.346Z,591.48
2023-04-06T19:17:44.069Z,591.48
2023-04-06T19:21:43.209Z,591.48
2023-04-06T19:25:43.710Z,591.48
2023-04-06T19:29:42.503Z,591.48
2023-04-06T19:33:43.583Z,591.48
2023-04-06T19:37:43.100Z,591.48
2023-04-06T19:41:42.981Z,591.48
2023-04-06T19:45:44.724Z,591.48
2023-04-06T19:49:43.604Z,591.48
2023-04-06T19:53:43.104Z,591.48
2023-04-06T19:57:43.161Z,591.48
2023-04-06T20:01:47.910Z,591.48
2023-04-06T20:05:44.090Z,591.48
2023-04-06T20:09:43.363Z,591.48
2023-04-06T20:13:43.507Z,591.48
2023-04-06T20:17:43.975Z,6602.81
2023-04-06T20:21:42.529Z,6602.81
2023-04-06T20:25:43.199Z,7.14
2023-04-06T20:29:43.283Z,7.14
2023-04-06T20:33:43.961Z,7.14
2023-04-06T20:37:43.723Z,7.14
2023-04-06T20:41:42.693Z,7.14
2023-04-06T20:45:42.480Z,7.14
2023-04-06T20:49:43.093Z,7.14
2023-04-06T20:53:43.120Z,7.14
2023-04-06T20:57:43.970Z,7.14
2023-04-06T21:01:46.976Z,7.14
2023-04-06T21:05:46.289Z,7.14
2023-04-06T21:09:43.037Z,7.14
2023-04-06T21:13:43.468Z,7.14
2023-04-06T21:17:43.342Z,7.14
2023-04-06T21:21:42.937Z,7.14
2023-04-06T21:25:42.979Z,7.14
2023-04-06T21:29:43.382Z,7.14
2023-04-06T21:33:43.664Z,7.14
2023-04-06T21:37:43.843Z,7.14
2023-04-06T21:41:43.617Z,7.14
2023-04-06T21:45:45.129Z,7.14
2023-04-06T21:49:43.056Z,7.14
2023-04-06T21:53:42.950Z,7.14
2023-04-06T21:57:42.969Z,7.14
2023-04-06T22:01:43.972Z,7.14
2023-04-06T22:05:44.718Z,7.14
2023-04-06T22:09:55.661Z,7.14
2023-04-06T22:13:42.856Z,7.14
2023-04-06T22:17:43.453Z,7.14
2023-04-06T22:21:42.999Z,7.14
2023-04-06T22:25:43.263Z,7.14
2023-04-06T22:29:44.548Z,14235.6
2023-04-06T22:33:44.082Z,15738.3
2023-04-06T22:37:42.693Z,15738.3
2023-04-06T22:41:42.777Z,15738.3
2023-04-06T22:45:43.130Z,15738.3
2023-04-06T22:49:43.400Z,15738.3
2023-04-06T22:53:43.922Z,15738.3
2023-04-06T22:57:42.694Z,15738.3
2023-04-06T23:01:47.246Z,15738.3
2023-04-06T23:05:44.010Z,15738.3
2023-04-06T23:09:43.162Z,15738.3
2023-04-06T23:13:43.178Z,15738.3
2023-04-06T23:17:43.908Z,15738.3
2023-04-06T23:21:44.630Z,15738.3
2023-04-06T23:25:43.974Z,15738.3
2023-04-06T23:29:43.514Z,15738.3
2023-04-06T23:33:44.269Z,15738.3
2023-04-06T23:37:43.560Z,15738.3
2023-04-06T23:41:42.935Z,15738.3
2023-04-06T23:45:42.805Z,15738.3
2023-04-06T23:49:42.786Z,15738.3
2023-04-06T23:53:43.352Z,15738.3
2023-04-06T23:57:43.090Z,15738.3
